Roy Baker — WDC2698 — position and weather

sailwx.info

Track history (hours):
 
Tides and Currents Weather Stations Pressure Air Temp Water Temp Dewpoint Dewpoint Depression Visibility Wind Speed Wind Dir Waves Ship Positions

Roy Baker

Owner: Kirby Inland Marine LP, Houston, TX. More information available from US FCC via Universal Licensing System and Coast Guard Vessel Documentation Center.

Last reported at 2017-Jun-20 14:28 UTC. Time now 2017-Nov-24 16:44 UTC.
Position N 29°32' W 090°50'.
Warning: this ship's position is months out of date.

Length 11 m; draft 2.1 m.

Type: Towing. MMSI: 366996540.

Date/timePositionNaut miles runAvg speedWind from/ knotsBaromVisibWave heightAir tempDewpointWater temp
2017-Jun-20 14:28N 29°32' W 090°50'6 6.1
2017-Jun-20 13:30N 29°34' W 090°44'0 0.9
2017-Jun-20 13:00N 29°34' W 090°43'0 0.1
2017-Jun-20 12:30N 29°34' W 090°43'3 5.2
2017-Jun-20 12:00N 29°37' W 090°42'3 6.4
2017-Jun-20 11:30N 29°36' W 090°39'3 6.3
2017-Jun-20 11:00N 29°35' W 090°35'3 0.4
2017-Jun-20 04:08N 29°34' W 090°32'2 5.6
2017-Jun-20 03:48N 29°34' W 090°34'2 5.5
2017-Jun-20 03:30N 29°35' W 090°36'2 4.6
2017-Jun-20 03:00N 29°35' W 090°39'1 2.1
2017-Jun-20 02:30N 29°36' W 090°40'3 5.0
2017-Jun-20 02:00N 29°37' W 090°42'2 4.0
2017-Jun-20 01:30N 29°35' W 090°43'2 3.7
2017-Jun-20 01:00N 29°34' W 090°45'1 2.6
2017-Jun-20 00:30N 29°33' W 090°46'3 5.8
2017-Jun-20 00:00N 29°32' W 090°49'65 3.2
2017-Jun-19 03:41N 29°49' W 092°01'1 4.9
2017-Jun-19 03:30N 29°49' W 092°02'2 4.8
2017-Jun-19 03:00N 29°48' W 092°05'2 4.8
2017-Jun-19 02:30N 29°47' W 092°07'2 4.9
2017-Jun-19 02:00N 29°47' W 092°10'2 4.7
2017-Jun-19 01:30N 29°47' W 092°13'2 4.8
2017-Jun-19 01:00N 29°48' W 092°15'2 3.8
2017-Jun-19 00:30N 29°49' W 092°17'47 4.1
2017-Jun-18 13:06N 29°57' W 093°10'1 5.2
2017-Jun-18 12:59N 29°57' W 093°11'3 5.2
2017-Jun-18 12:30N 29°59' W 093°13'3 5.1
2017-Jun-18 12:00N 30°01' W 093°14'2 4.7
2017-Jun-18 11:30N 30°03' W 093°16'3 5.0
2017-Jun-18 11:00N 30°05' W 093°17'1 1.9
2017-Jun-18 10:30N 30°06' W 093°18'0 0.1
2017-Jun-18 10:00N 30°06' W 093°18'0 0.2
2017-Jun-18 09:30N 30°06' W 093°18'0 0.0
2017-Jun-18 09:00N 30°06' W 093°18'0 0.0
2017-Jun-18 08:30N 30°06' W 093°18'0 0.0
2017-Jun-18 08:00N 30°06' W 093°18'0 0.0
2017-Jun-18 07:30N 30°06' W 093°18'0 0.0
2017-Jun-18 07:00N 30°06' W 093°18'0 0.0
2017-Jun-18 06:30N 30°06' W 093°18'0 0.0
2017-Jun-18 06:00N 30°06' W 093°18'0 0.0
2017-Jun-18 05:30N 30°06' W 093°18'0 0.0
2017-Jun-18 05:00N 30°06' W 093°18'0 0.0
2017-Jun-18 04:30N 30°06' W 093°18'0 0.0
2017-Jun-18 04:00N 30°06' W 093°18'0 0.0
2017-Jun-18 03:30N 30°06' W 093°18'0 0.0
2017-Jun-18 03:00N 30°06' W 093°18'0 0.0
2017-Jun-18 02:30N 30°06' W 093°18'0 0.1
2017-Jun-18 02:00N 30°06' W 093°18'0 0.0
2017-Jun-18 01:30N 30°06' W 093°18'0 0.0
2017-Jun-18 01:00N 30°06' W 093°18'0 0.0
2017-Jun-18 00:30N 30°06' W 093°18'0 0.5
2017-Jun-18 00:00N 30°06' W 093°18'0 0.1
2017-Jun-17 23:30N 30°06' W 093°18'0 0.0
2017-Jun-17 23:00N 30°06' W 093°18'0 0.0
2017-Jun-17 22:30N 30°06' W 093°18'0 0.0
2017-Jun-17 22:00N 30°06' W 093°18'0 0.0
2017-Jun-17 21:30N 30°06' W 093°18'0 0.0
2017-Jun-17 21:00N 30°06' W 093°18'0 0.1
2017-Jun-17 20:30N 30°06' W 093°18'0 0.0
2017-Jun-17 20:00N 30°06' W 093°18'0 0.0
2017-Jun-17 19:30N 30°06' W 093°18'0 0.0
2017-Jun-17 19:00N 30°06' W 093°18'0 0.0
2017-Jun-17 18:30N 30°06' W 093°18'0 0.0
2017-Jun-17 18:00N 30°06' W 093°18'0 0.1
2017-Jun-17 17:30N 30°06' W 093°18'0 0.3
2017-Jun-17 17:00N 30°06' W 093°18'2 4.3
2017-Jun-17 16:30N 30°05' W 093°20'3 5.0
2017-Jun-17 16:00N 30°04' W 093°23'2 4.8
2017-Jun-17 15:30N 30°04' W 093°26'2 4.6
2017-Jun-17 15:00N 30°04' W 093°28'  
2017-Jun-14 21:49N 30°04' W 093°34'1 4.4
2017-Jun-14 21:29N 30°04' W 093°32'2 4.4
2017-Jun-14 21:00N 30°04' W 093°30'2 4.4
2017-Jun-14 20:30N 30°04' W 093°27'2 4.5
2017-Jun-14 20:00N 30°04' W 093°25'2 4.6
2017-Jun-14 19:30N 30°04' W 093°22'2 3.8
2017-Jun-14 19:00N 30°05' W 093°20'2 4.5
2017-Jun-14 18:30N 30°06' W 093°18'1 2.4
2017-Jun-14 18:00N 30°05' W 093°17'1 2.0
2017-Jun-14 17:30N 30°04' W 093°16'1 1.1
2017-Jun-14 17:00N 30°04' W 093°16'0 0.4
2017-Jun-14 16:30N 30°04' W 093°16'0 0.1
2017-Jun-14 16:00N 30°04' W 093°16'0 0.2
2017-Jun-14 15:30N 30°04' W 093°16'1 2.2
2017-Jun-14 15:00N 30°03' W 093°16'5 4.7
2017-Jun-14 14:00N 29°59' W 093°12'3 5.1
2017-Jun-14 13:30N 29°57' W 093°10'43 4.2
2017-Jun-14 03:15N 29°51' W 092°22'1 4.1
2017-Jun-14 02:59N 29°51' W 092°20'2 4.2
2017-Jun-14 02:30N 29°50' W 092°18'2 4.2
2017-Jun-14 02:00N 29°49' W 092°16'2 4.0
2017-Jun-14 01:30N 29°48' W 092°14'2 3.7
2017-Jun-14 01:00N 29°47' W 092°12'0 0.5
2017-Jun-14 00:30N 29°47' W 092°12'1 2.1
2017-Jun-14 00:00N 29°47' W 092°11'0 0.3
2017-Jun-13 23:30N 29°47' W 092°11'2 3.6
2017-Jun-13 23:00N 29°47' W 092°09'2 4.6
2017-Jun-13 22:30N 29°48' W 092°06'2 4.3
2017-Jun-13 22:00N 29°49' W 092°04'2 4.3
2017-Jun-13 21:30N 29°49' W 092°01'64 4.0
2017-Jun-13 05:15N 29°32' W 090°50'1 4.2
2017-Jun-13 05:00N 29°32' W 090°49'2 3.8
2017-Jun-13 04:30N 29°32' W 090°47'1 2.9
2017-Jun-13 04:00N 29°33' W 090°45'2 3.0
2017-Jun-13 03:30N 29°34' W 090°44'1 2.8
2017-Jun-13 03:00N 29°35' W 090°43'2 3.7
2017-Jun-13 02:30N 29°37' W 090°42'2 4.0
2017-Jun-13 02:00N 29°36' W 090°40'2 4.1
2017-Jun-13 01:30N 29°35' W 090°38'2 3.9
2017-Jun-13 01:00N 29°35' W 090°36'2 4.1
2017-Jun-13 00:30N 29°34' W 090°34'  
Track history (hours):
 
Tides and Currents Weather Stations Pressure Air Temp Water Temp Dewpoint Dewpoint Depression Visibility Wind Speed Wind Dir Waves Ship Positions

Roy Baker

Owner: Kirby Inland Marine LP, Houston, TX. More information available from US FCC via Universal Licensing System and Coast Guard Vessel Documentation Center.

Last reported at 2017-Jun-20 14:28 UTC. Time now 2017-Nov-24 16:44 UTC.
Position N 29°32' W 090°50'.
Warning: this ship's position is months out of date.

Length 11 m; draft 2.1 m.

Type: Towing. MMSI: 366996540.

Date/timePositionNaut miles runAvg speedWind from/ knotsBaromVisibWave heightAir tempDewpointWater temp
2017-Jun-20 14:28N 29°32' W 090°50'6 6.1
2017-Jun-20 13:30N 29°34' W 090°44'0 0.9
2017-Jun-20 13:00N 29°34' W 090°43'0 0.1
2017-Jun-20 12:30N 29°34' W 090°43'3 5.2
2017-Jun-20 12:00N 29°37' W 090°42'3 6.4
2017-Jun-20 11:30N 29°36' W 090°39'3 6.3
2017-Jun-20 11:00N 29°35' W 090°35'3 0.4
2017-Jun-20 04:08N 29°34' W 090°32'2 5.6
2017-Jun-20 03:48N 29°34' W 090°34'2 5.5
2017-Jun-20 03:30N 29°35' W 090°36'2 4.6
2017-Jun-20 03:00N 29°35' W 090°39'1 2.1
2017-Jun-20 02:30N 29°36' W 090°40'3 5.0
2017-Jun-20 02:00N 29°37' W 090°42'2 4.0
2017-Jun-20 01:30N 29°35' W 090°43'2 3.7
2017-Jun-20 01:00N 29°34' W 090°45'1 2.6
2017-Jun-20 00:30N 29°33' W 090°46'3 5.8
2017-Jun-20 00:00N 29°32' W 090°49'65 3.2
2017-Jun-19 03:41N 29°49' W 092°01'1 4.9
2017-Jun-19 03:30N 29°49' W 092°02'2 4.8
2017-Jun-19 03:00N 29°48' W 092°05'2 4.8
2017-Jun-19 02:30N 29°47' W 092°07'2 4.9
2017-Jun-19 02:00N 29°47' W 092°10'2 4.7
2017-Jun-19 01:30N 29°47' W 092°13'2 4.8
2017-Jun-19 01:00N 29°48' W 092°15'2 3.8
2017-Jun-19 00:30N 29°49' W 092°17'47 4.1
2017-Jun-18 13:06N 29°57' W 093°10'1 5.2
2017-Jun-18 12:59N 29°57' W 093°11'3 5.2
2017-Jun-18 12:30N 29°59' W 093°13'3 5.1
2017-Jun-18 12:00N 30°01' W 093°14'2 4.7
2017-Jun-18 11:30N 30°03' W 093°16'3 5.0
2017-Jun-18 11:00N 30°05' W 093°17'1 1.9
2017-Jun-18 10:30N 30°06' W 093°18'0 0.1
2017-Jun-18 10:00N 30°06' W 093°18'0 0.2
2017-Jun-18 09:30N 30°06' W 093°18'0 0.0
2017-Jun-18 09:00N 30°06' W 093°18'0 0.0
2017-Jun-18 08:30N 30°06' W 093°18'0 0.0
2017-Jun-18 08:00N 30°06' W 093°18'0 0.0
2017-Jun-18 07:30N 30°06' W 093°18'0 0.0
2017-Jun-18 07:00N 30°06' W 093°18'0 0.0
2017-Jun-18 06:30N 30°06' W 093°18'0 0.0
2017-Jun-18 06:00N 30°06' W 093°18'0 0.0
2017-Jun-18 05:30N 30°06' W 093°18'0 0.0
2017-Jun-18 05:00N 30°06' W 093°18'0 0.0
2017-Jun-18 04:30N 30°06' W 093°18'0 0.0
2017-Jun-18 04:00N 30°06' W 093°18'0 0.0
2017-Jun-18 03:30N 30°06' W 093°18'0 0.0
2017-Jun-18 03:00N 30°06' W 093°18'0 0.0
2017-Jun-18 02:30N 30°06' W 093°18'0 0.1
2017-Jun-18 02:00N 30°06' W 093°18'0 0.0
2017-Jun-18 01:30N 30°06' W 093°18'0 0.0
2017-Jun-18 01:00N 30°06' W 093°18'0 0.0
2017-Jun-18 00:30N 30°06' W 093°18'0 0.5
2017-Jun-18 00:00N 30°06' W 093°18'0 0.1
2017-Jun-17 23:30N 30°06' W 093°18'0 0.0
2017-Jun-17 23:00N 30°06' W 093°18'0 0.0
2017-Jun-17 22:30N 30°06' W 093°18'0 0.0
2017-Jun-17 22:00N 30°06' W 093°18'0 0.0
2017-Jun-17 21:30N 30°06' W 093°18'0 0.0
2017-Jun-17 21:00N 30°06' W 093°18'0 0.1
2017-Jun-17 20:30N 30°06' W 093°18'0 0.0
2017-Jun-17 20:00N 30°06' W 093°18'0 0.0
2017-Jun-17 19:30N 30°06' W 093°18'0 0.0
2017-Jun-17 19:00N 30°06' W 093°18'0 0.0
2017-Jun-17 18:30N 30°06' W 093°18'0 0.0
2017-Jun-17 18:00N 30°06' W 093°18'0 0.1
2017-Jun-17 17:30N 30°06' W 093°18'0 0.3
2017-Jun-17 17:00N 30°06' W 093°18'2 4.3
2017-Jun-17 16:30N 30°05' W 093°20'3 5.0
2017-Jun-17 16:00N 30°04' W 093°23'2 4.8
2017-Jun-17 15:30N 30°04' W 093°26'2 4.6
2017-Jun-17 15:00N 30°04' W 093°28'  
2017-Jun-14 21:49N 30°04' W 093°34'1 4.4
2017-Jun-14 21:29N 30°04' W 093°32'2 4.4
2017-Jun-14 21:00N 30°04' W 093°30'2 4.4
2017-Jun-14 20:30N 30°04' W 093°27'2 4.5
2017-Jun-14 20:00N 30°04' W 093°25'2 4.6
2017-Jun-14 19:30N 30°04' W 093°22'2 3.8
2017-Jun-14 19:00N 30°05' W 093°20'2 4.5
2017-Jun-14 18:30N 30°06' W 093°18'1 2.4
2017-Jun-14 18:00N 30°05' W 093°17'1 2.0
2017-Jun-14 17:30N 30°04' W 093°16'1 1.1
2017-Jun-14 17:00N 30°04' W 093°16'0 0.4
2017-Jun-14 16:30N 30°04' W 093°16'0 0.1
2017-Jun-14 16:00N 30°04' W 093°16'0 0.2
2017-Jun-14 15:30N 30°04' W 093°16'1 2.2
2017-Jun-14 15:00N 30°03' W 093°16'5 4.7
2017-Jun-14 14:00N 29°59' W 093°12'3 5.1
2017-Jun-14 13:30N 29°57' W 093°10'43 4.2
2017-Jun-14 03:15N 29°51' W 092°22'1 4.1
2017-Jun-14 02:59N 29°51' W 092°20'2 4.2
2017-Jun-14 02:30N 29°50' W 092°18'2 4.2
2017-Jun-14 02:00N 29°49' W 092°16'2 4.0
2017-Jun-14 01:30N 29°48' W 092°14'2 3.7
2017-Jun-14 01:00N 29°47' W 092°12'0 0.5
2017-Jun-14 00:30N 29°47' W 092°12'1 2.1
2017-Jun-14 00:00N 29°47' W 092°11'0 0.3
2017-Jun-13 23:30N 29°47' W 092°11'2 3.6
2017-Jun-13 23:00N 29°47' W 092°09'2 4.6
2017-Jun-13 22:30N 29°48' W 092°06'2 4.3
2017-Jun-13 22:00N 29°49' W 092°04'2 4.3
2017-Jun-13 21:30N 29°49' W 092°01'64 4.0
2017-Jun-13 05:15N 29°32' W 090°50'1 4.2
2017-Jun-13 05:00N 29°32' W 090°49'2 3.8
2017-Jun-13 04:30N 29°32' W 090°47'1 2.9
2017-Jun-13 04:00N 29°33' W 090°45'2 3.0
2017-Jun-13 03:30N 29°34' W 090°44'1 2.8
2017-Jun-13 03:00N 29°35' W 090°43'2 3.7
2017-Jun-13 02:30N 29°37' W 090°42'2 4.0
2017-Jun-13 02:00N 29°36' W 090°40'2 4.1
2017-Jun-13 01:30N 29°35' W 090°38'2 3.9
2017-Jun-13 01:00N 29°35' W 090°36'2 4.1
2017-Jun-13 00:30N 29°34' W 090°34'  

Dump ship's entire track history